Pagina principale
METAR-TAF:

METAR-TAF

Aeroporti :

Aeroporto di Bergamo-Orio al Serio

Bergamo, Italia

latitudine: 45-40N, longitudine: 009-42E, altezza: 238 m

Osservazione

Il bollettino è stato emesso 15 minuti fa, alle 23:20 UTC
Vento 3 kt da est/sud-est
Temperature 22°C
Umidità 57%
Pressione 1018 hPa
Visibilità 10 km o più
Nubi sparse ad un'altezza di 4000 ft
Nubi sparse ad un'altezza di 5500 ft

METAR: LIME 142320Z 12003KT 9999 SCT040 SCT055 22/13 Q1018 NOSIG

Ora: 01:35 (23:35 UTC)

Previsione

Il bollettino è stato emesso 6 ore e 35 minuti fa, alle 17:00 UTC
Previsione valida dal 14 alle 18 UTC al 15 alle 18 UTC
Vento 5 kt da direzioni variabili
Visibilità 10 km o più
Poco nuvoloso ad un'altezza di 3000 ft

TAF: LIME 141700Z 1418/1518 VRB05KT 9999 FEW030

Osservazioni e previsioni meteorologiche di più di 4000 aeroporti (messaggi METAR e TAF).

Le stazioni disponibili sono rappresentate dai dischi gialli e rossi sulla carta.

Puntare il mouse per vedere il nome della stazione.

Clicca sopra per visualizzare le osservazioni e previsioni meteorologiche.

Per cambiare la mappa : fare clic sui pulsanti verdi con una croce nera per ingrandire, il pulsante verde con un trattino per diminuire, o sulla freccia verde per le mappe adiacenti.


METAR-TAF: